createdAt,value
2019-04-28T00:01:41.060Z,2.60
2019-04-28T00:04:32.472Z,2.60
2019-04-28T00:07:23.963Z,2.43
2019-04-28T00:10:15.560Z,1.70
2019-04-28T00:13:07.343Z,1.97
2019-04-28T00:16:01.486Z,1.83
2019-04-28T00:18:53.871Z,1.83
2019-04-28T00:22:01.114Z,2.17
2019-04-28T00:24:56.645Z,1.90
2019-04-28T00:27:48.082Z,1.87
2019-04-28T00:30:39.452Z,2.00
2019-04-28T00:33:31.471Z,1.93
2019-04-28T00:36:23.131Z,1.63
2019-04-28T00:39:14.687Z,1.50
2019-04-28T00:42:06.056Z,1.80
2019-04-28T00:44:57.424Z,1.90
2019-04-28T00:47:48.775Z,1.80
2019-04-28T00:50:41.340Z,1.40
2019-04-28T00:53:33.886Z,1.63
2019-04-28T00:56:25.358Z,1.33
2019-04-28T00:59:16.970Z,1.40
2019-04-28T01:02:41.312Z,1.37
2019-04-28T01:05:32.450Z,2.33
2019-04-28T01:08:24.176Z,2.00
2019-04-28T01:11:15.751Z,1.80
2019-04-28T01:14:07.094Z,1.40
2019-04-28T01:17:09.807Z,1.90
2019-04-28T01:20:03.338Z,2.00
2019-04-28T01:22:54.894Z,2.03
2019-04-28T01:25:46.242Z,1.57
2019-04-28T01:28:37.529Z,1.80
2019-04-28T01:31:43.063Z,2.10
2019-04-28T01:34:34.842Z,1.90
2019-04-28T01:37:26.560Z,2.30
2019-04-28T01:40:18.166Z,1.80
2019-04-28T01:43:09.794Z,2.07
2019-04-28T01:46:01.317Z,2.43
2019-04-28T01:48:52.794Z,2.07
2019-04-28T01:51:44.242Z,2.47
2019-04-28T01:54:35.746Z,2.17
2019-04-28T01:57:27.253Z,2.20
2019-04-28T02:00:25.046Z,2.13
2019-04-28T02:03:13.026Z,2.47
2019-04-28T02:06:04.682Z,2.10
2019-04-28T02:08:56.314Z,2.77
2019-04-28T02:11:49.788Z,2.00
2019-04-28T02:14:42.046Z,2.10
2019-04-28T02:17:33.478Z,1.90
2019-04-28T02:20:25.096Z,2.93
2019-04-28T02:23:22.235Z,1.87
2019-04-28T02:26:13.586Z,2.40
2019-04-28T02:29:04.938Z,2.20
2019-04-28T02:31:56.393Z,1.80
2019-04-28T02:34:50.688Z,2.17
2019-04-28T02:37:41.784Z,2.83
2019-04-28T02:40:33.383Z,2.43
2019-04-28T02:43:25.013Z,2.40
2019-04-28T02:46:16.804Z,2.17
2019-04-28T02:49:10.277Z,2.20
2019-04-28T02:52:12.202Z,1.97
2019-04-28T02:55:03.919Z,2.20
2019-04-28T02:57:55.427Z,2.23
2019-04-28T03:01:02.584Z,1.90
2019-04-28T03:03:40.902Z,1.90
2019-04-28T03:06:32.453Z,1.93
2019-04-28T03:09:24.280Z,2.47
2019-04-28T03:12:15.827Z,1.60
2019-04-28T03:15:10.345Z,1.83
2019-04-28T03:18:02.260Z,1.80
2019-04-28T03:20:53.696Z,2.30
2019-04-28T03:23:44.934Z,2.10
2019-04-28T03:26:46.146Z,2.00
2019-04-28T03:29:42.529Z,1.77
2019-04-28T03:32:45.460Z,1.43
2019-04-28T03:35:32.541Z,1.53
2019-04-28T03:38:21.857Z,2.47
2019-04-28T03:41:13.886Z,2.00
2019-04-28T03:44:05.415Z,1.90
2019-04-28T03:46:57.019Z,1.70
2019-04-28T03:49:50.595Z,1.87
2019-04-28T03:52:42.099Z,1.97
2019-04-28T03:55:34.959Z,1.77
2019-04-28T03:58:26.723Z,1.90
2019-04-28T04:01:20.556Z,1.70
2019-04-28T04:04:11.673Z,2.33
2019-04-28T04:07:02.964Z,1.90
2019-04-28T04:10:15.412Z,1.70
2019-04-28T04:13:21.088Z,2.10
2019-04-28T04:16:40.756Z,1.93
2019-04-28T04:19:36.579Z,1.73
2019-04-28T04:22:27.831Z,1.93
2019-04-28T04:25:20.354Z,1.67
2019-04-28T04:28:12.166Z,1.93
2019-04-28T04:31:03.696Z,2.00
2019-04-28T04:33:55.034Z,1.80
2019-04-28T04:36:46.555Z,1.70
2019-04-28T04:39:40.519Z,1.67
2019-04-28T04:42:30.989Z,2.37
2019-04-28T04:45:22.299Z,2.27
2019-04-28T04:48:14.475Z,2.47
2019-04-28T04:51:05.819Z,2.10
2019-04-28T04:53:57.127Z,2.17
2019-04-28T04:56:50.111Z,2.87
2019-04-28T04:59:41.716Z,2.73
2019-04-28T05:02:51.977Z,2.23
2019-04-28T05:05:40.739Z,2.63
2019-04-28T05:08:32.179Z,2.60
2019-04-28T05:11:23.429Z,2.40
2019-04-28T05:14:14.998Z,3.03
2019-04-28T05:17:06.628Z,2.50
2019-04-28T05:19:59.697Z,2.30
2019-04-28T05:22:57.726Z,2.00
2019-04-28T05:25:49.714Z,2.33
2019-04-28T05:28:50.563Z,2.00
2019-04-28T05:31:34.271Z,2.43
2019-04-28T05:34:25.713Z,2.87
2019-04-28T05:37:17.252Z,2.23
2019-04-28T05:40:10.503Z,2.50
2019-04-28T05:43:02.106Z,2.30
2019-04-28T05:45:53.558Z,2.30
2019-04-28T05:48:51.999Z,2.40
2019-04-28T05:51:44.511Z,2.30
2019-04-28T05:54:46.563Z,2.40
2019-04-28T05:57:45.179Z,2.80
2019-04-28T06:00:53.032Z,2.00
2019-04-28T06:03:44.976Z,2.50
2019-04-28T06:06:40.490Z,2.97
2019-04-28T06:09:51.782Z,2.57
2019-04-28T06:12:43.131Z,2.83
2019-04-28T06:15:34.663Z,2.43
2019-04-28T06:18:26.234Z,2.97
2019-04-28T06:21:18.522Z,2.97
2019-04-28T06:24:09.864Z,2.83
2019-04-28T06:27:01.196Z,2.30
2019-04-28T06:29:52.581Z,3.13
2019-04-28T06:32:44.199Z,2.90
2019-04-28T06:35:35.779Z,2.83
2019-04-28T06:38:27.614Z,2.73
2019-04-28T06:41:19.134Z,2.63
2019-04-28T06:44:10.652Z,2.83
2019-04-28T06:47:02.924Z,3.10
2019-04-28T06:49:55.868Z,2.40
2019-04-28T06:52:47.357Z,2.37
2019-04-28T06:55:39.060Z,2.70
2019-04-28T06:58:31.047Z,2.77
2019-04-28T07:01:22.817Z,2.77
2019-04-28T07:04:14.337Z,2.50
2019-04-28T07:07:05.957Z,2.70
2019-04-28T07:09:57.587Z,3.33
2019-04-28T07:12:49.356Z,2.83
2019-04-28T07:15:40.880Z,3.33
2019-04-28T07:18:33.863Z,3.77
2019-04-28T07:21:47.661Z,4.00
2019-04-28T07:24:38.765Z,4.17
2019-04-28T07:27:30.741Z,4.30
2019-04-28T07:30:23.722Z,4.83
2019-04-28T07:33:16.191Z,2.97
2019-04-28T07:36:07.465Z,2.23
2019-04-28T07:38:59.232Z,2.37
2019-04-28T07:41:50.775Z,2.90
2019-04-28T07:44:42.004Z,2.80
2019-04-28T07:47:33.255Z,3.07
2019-04-28T07:50:24.690Z,3.10
2019-04-28T07:53:38.087Z,3.77
2019-04-28T07:56:29.541Z,2.97
2019-04-28T07:59:21.271Z,2.80
2019-04-28T08:02:13.000Z,2.27
2019-04-28T08:05:04.611Z,2.67
2019-04-28T08:07:56.904Z,3.03
2019-04-28T08:10:48.153Z,3.20
2019-04-28T08:13:40.214Z,3.30
2019-04-28T08:16:32.923Z,3.30
2019-04-28T08:19:24.216Z,3.17
2019-04-28T08:22:15.697Z,3.80
2019-04-28T08:25:07.327Z,2.97
2019-04-28T08:27:58.940Z,2.70
2019-04-28T08:30:50.250Z,2.17
2019-04-28T08:33:47.554Z,2.90
2019-04-28T08:36:39.990Z,2.90
2019-04-28T08:39:31.747Z,2.80
2019-04-28T08:42:23.192Z,3.10
2019-04-28T08:45:14.890Z,3.20
2019-04-28T08:48:06.605Z,2.63
2019-04-28T08:50:58.018Z,2.43
2019-04-28T08:53:49.473Z,2.63
2019-04-28T08:56:41.055Z,2.63
2019-04-28T08:59:32.613Z,2.83
2019-04-28T09:02:24.143Z,3.10
2019-04-28T09:05:15.617Z,3.83
2019-04-28T09:08:06.929Z,3.40
2019-04-28T09:10:58.390Z,3.80
2019-04-28T09:13:49.643Z,3.63
2019-04-28T09:16:40.984Z,3.50
2019-04-28T09:19:33.067Z,3.30
2019-04-28T09:22:24.622Z,3.50
2019-04-28T09:25:16.112Z,4.60
2019-04-28T09:28:07.552Z,4.23
2019-04-28T09:31:00.897Z,3.80
2019-04-28T09:33:52.306Z,6.23
2019-04-28T09:36:44.762Z,7.53
2019-04-28T09:40:01.275Z,4.57
2019-04-28T09:43:13.500Z,2.90
2019-04-28T09:46:12.779Z,2.77
2019-04-28T09:49:04.575Z,3.23
2019-04-28T09:51:56.427Z,3.47
2019-04-28T09:54:48.646Z,3.73
2019-04-28T09:57:40.374Z,3.60
2019-04-28T10:00:32.249Z,3.70
2019-04-28T10:03:25.327Z,3.20
2019-04-28T10:06:17.090Z,3.47
2019-04-28T10:09:09.508Z,3.67
2019-04-28T10:12:01.386Z,4.77
2019-04-28T10:14:53.111Z,4.33
2019-04-28T10:17:44.798Z,4.10
2019-04-28T10:20:36.336Z,4.03
2019-04-28T10:23:30.587Z,4.27
2019-04-28T10:26:22.119Z,4.37
2019-04-28T10:29:14.807Z,5.10
2019-04-28T10:32:06.367Z,4.80
2019-04-28T10:34:57.785Z,4.53
2019-04-28T10:37:49.056Z,4.57
2019-04-28T10:40:51.389Z,3.50
2019-04-28T10:43:42.520Z,3.53
2019-04-28T10:46:33.845Z,4.10
2019-04-28T10:49:26.337Z,4.00
2019-04-28T10:52:17.873Z,4.80
2019-04-28T10:55:09.703Z,5.23
2019-04-28T10:58:01.259Z,5.27
2019-04-28T11:00:54.665Z,5.90
2019-04-28T11:03:47.867Z,5.50
2019-04-28T11:06:39.845Z,6.57
2019-04-28T11:09:37.352Z,6.77
2019-04-28T11:12:30.071Z,5.93
2019-04-28T11:15:26.021Z,5.90
2019-04-28T11:18:18.000Z,4.80
2019-04-28T11:21:09.324Z,4.47
2019-04-28T11:24:01.085Z,4.53
2019-04-28T11:26:52.728Z,5.00
2019-04-28T11:29:44.371Z,5.47
2019-04-28T11:32:36.014Z,5.20
2019-04-28T11:35:29.493Z,5.40
2019-04-28T11:38:21.073Z,5.10
2019-04-28T11:41:13.359Z,5.37
2019-04-28T11:44:04.683Z,5.17
2019-04-28T11:46:56.133Z,5.00
2019-04-28T11:49:47.670Z,4.90
2019-04-28T11:52:39.086Z,5.00
2019-04-28T11:55:30.427Z,4.97
2019-04-28T11:58:22.015Z,4.70
2019-04-28T12:01:15.430Z,5.03
2019-04-28T12:04:09.811Z,4.70
2019-04-28T12:07:01.129Z,5.63
2019-04-28T12:10:05.825Z,5.33
2019-04-28T12:13:22.760Z,5.10
2019-04-28T12:16:33.283Z,4.37
2019-04-28T12:19:43.709Z,4.87
2019-04-28T12:22:34.762Z,5.37
2019-04-28T12:25:26.274Z,4.70
2019-04-28T12:28:17.516Z,4.63
2019-04-28T12:31:08.925Z,3.90
2019-04-28T12:34:00.511Z,4.10
2019-04-28T12:36:52.149Z,4.03
2019-04-28T12:39:43.790Z,4.27
2019-04-28T12:42:35.079Z,4.77
2019-04-28T12:45:34.888Z,4.03
2019-04-28T12:48:19.666Z,4.87
2019-04-28T12:51:10.966Z,4.73
2019-04-28T12:54:05.284Z,4.27
2019-04-28T12:56:56.940Z,4.93
2019-04-28T12:59:56.861Z,4.70
2019-04-28T13:03:07.579Z,5.50
2019-04-28T13:06:03.636Z,4.80
2019-04-28T13:08:53.526Z,4.97
2019-04-28T13:11:45.522Z,5.10
2019-04-28T13:14:37.284Z,5.83
2019-04-28T13:17:29.515Z,4.77
2019-04-28T13:20:21.256Z,4.77
2019-04-28T13:23:12.629Z,2.20
2019-04-28T13:26:04.216Z,2.67
2019-04-28T13:28:55.933Z,2.40
2019-04-28T13:31:47.278Z,2.60
2019-04-28T13:34:40.211Z,3.20
2019-04-28T13:37:31.568Z,11.93
2019-04-28T13:40:28.474Z,5.10
2019-04-28T13:43:20.026Z,4.30
2019-04-28T13:46:12.744Z,4.93
2019-04-28T13:49:06.985Z,4.70
2019-04-28T13:51:58.647Z,4.33
2019-04-28T13:54:53.338Z,4.67
2019-04-28T13:57:44.880Z,4.50
2019-04-28T14:00:48.161Z,6.00
2019-04-28T14:04:04.632Z,5.00
2019-04-28T14:07:06.884Z,5.60
2019-04-28T14:09:58.366Z,6.83
2019-04-28T14:12:49.854Z,6.73
2019-04-28T14:15:41.208Z,6.30
2019-04-28T14:18:32.536Z,7.30
2019-04-28T14:21:24.243Z,7.67
2019-04-28T14:24:15.858Z,5.70
2019-04-28T14:27:07.493Z,6.30
2019-04-28T14:29:58.785Z,6.70
2019-04-28T14:32:50.229Z,7.47
2019-04-28T14:35:41.590Z,6.50
2019-04-28T14:38:33.264Z,6.97
2019-04-28T14:41:24.509Z,7.37
2019-04-28T14:44:17.698Z,7.70
2019-04-28T14:47:09.240Z,6.43
2019-04-28T14:50:02.773Z,6.40
2019-04-28T14:52:53.924Z,7.10
2019-04-28T14:55:45.458Z,7.27
2019-04-28T14:58:37.041Z,6.93
2019-04-28T15:01:46.149Z,5.37
2019-04-28T15:05:00.984Z,4.90
2019-04-28T15:08:12.647Z,4.70
2019-04-28T15:11:21.801Z,6.07
2019-04-28T15:14:13.244Z,7.40
2019-04-28T15:17:04.556Z,6.13
2019-04-28T15:19:55.918Z,6.53
2019-04-28T15:22:47.421Z,6.00
2019-04-28T15:25:39.131Z,5.20
2019-04-28T15:28:30.768Z,6.23
2019-04-28T15:31:22.346Z,6.17
2019-04-28T15:34:13.967Z,6.10
2019-04-28T15:37:10.012Z,5.83
2019-04-28T15:39:58.681Z,6.27
2019-04-28T15:42:50.029Z,5.53
2019-04-28T15:45:41.884Z,5.10
2019-04-28T15:48:33.961Z,4.67
2019-04-28T15:51:25.289Z,4.83
2019-04-28T15:54:16.876Z,6.03
2019-04-28T15:57:08.181Z,6.03
2019-04-28T15:59:59.901Z,5.00
2019-04-28T16:02:51.326Z,5.10
2019-04-28T16:05:42.857Z,5.87
2019-04-28T16:08:34.893Z,5.50
2019-04-28T16:11:29.023Z,5.67
2019-04-28T16:14:19.957Z,5.40
2019-04-28T16:17:12.172Z,4.27
2019-04-28T16:20:03.848Z,4.10
2019-04-28T16:22:55.221Z,4.40
2019-04-28T16:25:46.598Z,5.13
2019-04-28T16:28:38.560Z,4.50
2019-04-28T16:31:29.877Z,4.37
2019-04-28T16:34:21.927Z,3.47
2019-04-28T16:37:13.319Z,3.30
2019-04-28T16:40:08.983Z,4.00
2019-04-28T16:43:04.145Z,3.77
2019-04-28T16:45:55.565Z,4.20
2019-04-28T16:48:47.203Z,4.23
2019-04-28T16:51:39.122Z,4.20
2019-04-28T16:54:30.447Z,4.23
2019-04-28T16:57:33.440Z,4.10
2019-04-28T17:00:52.880Z,4.20
2019-04-28T17:03:45.554Z,4.47
2019-04-28T17:06:36.888Z,4.30
2019-04-28T17:09:28.538Z,3.67
2019-04-28T17:12:20.221Z,3.80
2019-04-28T17:15:12.079Z,3.63
2019-04-28T17:18:03.593Z,3.80
2019-04-28T17:20:55.191Z,4.30
2019-04-28T17:23:46.719Z,4.03
2019-04-28T17:26:38.397Z,4.60
2019-04-28T17:29:31.632Z,5.00
2019-04-28T17:32:23.038Z,4.93
2019-04-28T17:35:14.949Z,4.90
2019-04-28T17:38:07.211Z,5.27
2019-04-28T17:40:58.911Z,5.07
2019-04-28T17:43:50.646Z,4.40
2019-04-28T17:46:42.274Z,4.97
2019-04-28T17:49:38.107Z,6.07
2019-04-28T17:52:29.674Z,5.30
2019-04-28T17:55:21.029Z,5.57
2019-04-28T17:58:12.406Z,5.90
2019-04-28T18:01:26.625Z,6.13
2019-04-28T18:04:40.733Z,6.93
2019-04-28T18:07:34.533Z,6.50
2019-04-28T18:10:27.460Z,6.10
2019-04-28T18:13:19.053Z,6.13
2019-04-28T18:16:30.040Z,6.03
2019-04-28T18:19:22.433Z,6.53
2019-04-28T18:22:14.059Z,6.50
2019-04-28T18:25:05.855Z,6.90
2019-04-28T18:27:57.148Z,6.93
2019-04-28T18:30:56.835Z,6.57
2019-04-28T18:34:25.430Z,6.33
2019-04-28T18:37:35.622Z,6.40
2019-04-28T18:40:43.293Z,7.40
2019-04-28T18:43:44.362Z,7.77
2019-04-28T18:46:35.947Z,7.50
2019-04-28T18:49:28.035Z,8.17
2019-04-28T18:52:19.793Z,7.47
2019-04-28T18:55:11.787Z,9.07
2019-04-28T18:58:03.665Z,9.63
2019-04-28T19:01:03.486Z,8.13
2019-04-28T19:03:54.995Z,10.27
2019-04-28T19:06:46.512Z,8.77
2019-04-28T19:10:09.031Z,9.27
2019-04-28T19:13:04.939Z,9.80
2019-04-28T19:16:14.298Z,8.60
2019-04-28T19:19:08.577Z,9.23
2019-04-28T19:22:01.154Z,9.20
2019-04-28T19:24:52.783Z,9.30
2019-04-28T19:27:44.667Z,8.10
2019-04-28T19:30:36.330Z,17.53
2019-04-28T19:33:27.786Z,13.77
2019-04-28T19:36:19.348Z,18.43
2019-04-28T19:39:10.839Z,13.50
2019-04-28T19:42:03.953Z,11.23
2019-04-28T19:44:55.589Z,13.07
2019-04-28T19:47:47.181Z,11.87
2019-04-28T19:50:38.801Z,11.37
2019-04-28T19:53:31.938Z,11.97
2019-04-28T19:56:33.693Z,12.70
2019-04-28T19:59:29.752Z,12.00
2019-04-28T20:02:22.733Z,10.77
2019-04-28T20:05:14.398Z,12.80
2019-04-28T20:08:06.102Z,17.20
2019-04-28T20:10:57.445Z,11.73
2019-04-28T20:13:49.590Z,12.97
2019-04-28T20:16:40.870Z,13.00
2019-04-28T20:19:32.322Z,12.57
2019-04-28T20:22:23.812Z,12.43
2019-04-28T20:25:15.428Z,11.77
2019-04-28T20:28:06.992Z,10.90
2019-04-28T20:30:58.833Z,12.20
2019-04-28T20:33:50.331Z,12.67
2019-04-28T20:36:50.518Z,13.43
2019-04-28T20:39:42.997Z,12.27
2019-04-28T20:42:52.257Z,13.07
2019-04-28T20:45:43.733Z,12.80
2019-04-28T20:48:35.752Z,12.10
2019-04-28T20:51:27.013Z,11.57
2019-04-28T20:54:18.585Z,12.30
2019-04-28T20:57:10.006Z,11.30
2019-04-28T21:00:01.377Z,10.93
2019-04-28T21:02:53.822Z,12.50
2019-04-28T21:05:45.501Z,12.70
2019-04-28T21:08:37.247Z,13.37
2019-04-28T21:11:28.942Z,13.83
2019-04-28T21:14:20.813Z,12.17
2019-04-28T21:17:12.494Z,14.10
2019-04-28T21:20:03.945Z,14.77
2019-04-28T21:22:56.229Z,13.90
2019-04-28T21:25:47.789Z,12.97
2019-04-28T21:28:39.347Z,13.47
2019-04-28T21:31:32.824Z,14.63
2019-04-28T21:34:24.278Z,12.93
2019-04-28T21:37:18.375Z,12.50
2019-04-28T21:40:09.932Z,12.87
2019-04-28T21:43:35.864Z,10.50
2019-04-28T21:46:38.975Z,10.67
2019-04-28T21:49:32.283Z,12.10
2019-04-28T21:52:23.524Z,12.10
2019-04-28T21:55:15.051Z,11.53
2019-04-28T21:58:06.530Z,14.37
2019-04-28T22:00:58.377Z,15.27
2019-04-28T22:03:51.059Z,14.70
2019-04-28T22:06:42.469Z,15.33
2019-04-28T22:09:34.013Z,13.80
2019-04-28T22:12:25.540Z,15.13
2019-04-28T22:15:17.006Z,15.13
2019-04-28T22:18:08.372Z,14.07
2019-04-28T22:20:59.899Z,15.27
2019-04-28T22:24:06.720Z,16.03
2019-04-28T22:26:58.837Z,14.87
2019-04-28T22:29:50.366Z,16.87
2019-04-28T22:32:41.826Z,15.00
2019-04-28T22:35:33.240Z,13.87
2019-04-28T22:38:25.703Z,12.10
2019-04-28T22:41:17.148Z,15.17
2019-04-28T22:44:08.684Z,14.70
2019-04-28T22:47:00.056Z,13.60
2019-04-28T22:49:52.189Z,13.57
2019-04-28T22:52:43.547Z,17.27
2019-04-28T22:55:39.478Z,17.93
2019-04-28T22:58:56.631Z,17.20
2019-04-28T23:01:54.875Z,17.67
2019-04-28T23:04:52.777Z,17.03
2019-04-28T23:07:44.169Z,15.23
2019-04-28T23:10:35.676Z,13.03
2019-04-28T23:13:27.150Z,11.90
2019-04-28T23:16:18.625Z,12.80
2019-04-28T23:19:12.421Z,13.07
2019-04-28T23:22:15.805Z,12.43
2019-04-28T23:25:08.415Z,11.83
2019-04-28T23:27:59.949Z,13.20
2019-04-28T23:30:51.568Z,13.10
2019-04-28T23:33:43.198Z,12.83
2019-04-28T23:36:36.688Z,13.47
2019-04-28T23:39:28.051Z,14.33
2019-04-28T23:42:31.213Z,15.33
2019-04-28T23:45:23.373Z,13.70
2019-04-28T23:48:14.953Z,14.27
2019-04-28T23:51:12.841Z,13.83
2019-04-28T23:54:05.978Z,14.43
2019-04-28T23:56:58.065Z,15.10
2019-04-28T23:59:50.177Z,15.00
